Time;durP1;ratioP1;P1;durP2;ratioP2;P2;SDS_P1;SDS_P2;PMS_P1;PMS_P2;Temp;Humidity;BMP_temperature;BMP_pressure;BME280_temperature;BME280_humidity;BME280_pressure;Samples;Min_cycle;Max_cycle;Signal;HPM_P1;HPM_P2
2022/02/03 00:01:13;;;;;;;18.77;14.57;;;10.70;99.90;;;;;;4915129;29;20833;-83
2022/02/03 00:04:10;;;;;;;22.57;14.67;;;10.70;99.90;;;;;;4932536;29;21555;-83
2022/02/03 00:07:07;;;;;;;22.03;14.30;;;10.70;99.90;;;;;;4939205;29;20520;-82
2022/02/03 00:10:30;;;;;;;21.07;13.77;;;10.70;99.90;;;;;;4924728;29;20532;-83
2022/02/03 00:25:45;;;;;;;19.30;13.93;;;10.70;99.90;;;;;;4997798;28;20573;-84
2022/02/03 00:29:02;;;;;;;20.37;14.10;;;10.70;99.90;;;;;;4994922;28;20827;-84
2022/02/03 00:32:18;;;;;;;16.63;12.80;;;10.60;99.90;;;;;;4978441;28;20543;-86
2022/02/03 00:56:17;;;;;;;18.10;12.27;;;11.00;99.90;;;;;;4994303;28;20452;-85
2022/02/03 00:59:55;;;;;;;15.03;11.03;;;11.10;99.90;;;;;;5007542;28;20556;-84
2022/02/03 01:02:51;;;;;;;18.83;12.07;;;11.00;99.90;;;;;;4977429;28;20498;-85
2022/02/03 01:05:46;;;;;;;16.57;11.63;;;10.90;99.90;;;;;;5009221;28;20474;-85
2022/02/03 01:08:46;;;;;;;14.50;11.30;;;10.90;99.90;;;;;;5006866;28;20465;-85
2022/02/03 01:11:46;;;;;;;13.97;11.60;;;10.90;99.90;;;;;;5008054;28;20487;-86
2022/02/03 01:15:03;;;;;;;14.60;10.83;;;10.90;99.90;;;;;;5010848;28;20533;-85
2022/02/03 01:43:40;;;;;;;14.97;11.43;;;11.30;99.90;;;;;;4999425;28;20477;-84
2022/02/03 01:46:27;;;;;;;16.83;12.63;;;11.10;99.90;;;;;;5002286;28;20468;-85
2022/02/03 01:49:14;;;;;;;16.10;11.70;;;11.00;99.90;;;;;;5007780;28;20530;-84
2022/02/03 01:52:32;;;;;;;19.17;13.40;;;11.10;99.90;;;;;;5003937;28;20478;-86
2022/02/03 01:55:19;;;;;;;15.67;12.10;;;10.90;99.90;;;;;;4998079;28;20553;-87
2022/02/03 01:58:45;;;;;;;15.63;12.40;;;10.80;99.90;;;;;;5000717;28;20460;-84
2022/02/03 02:01:38;;;;;;;17.53;12.30;;;10.80;99.90;;;;;;4997534;28;20483;-84
2022/02/03 02:04:41;;;;;;;14.93;10.43;;;10.60;99.90;;;;;;5001556;28;20479;-83
2022/02/03 02:08:13;;;;;;;15.70;11.90;;;10.80;99.90;;;;;;4999414;28;20514;-83
2022/02/03 02:11:32;;;;;;;16.10;10.90;;;10.10;99.90;;;;;;4995926;28;20486;-83
2022/02/03 02:44:57;;;;;;;11.50;8.27;;;10.30;99.90;;;;;;4996153;28;20609;-85
2022/02/03 02:48:26;;;;;;;10.77;8.70;;;10.50;99.90;;;;;;5000474;28;20455;-83
2022/02/03 02:51:35;;;;;;;9.40;8.07;;;10.30;99.90;;;;;;4998611;28;20549;-82
2022/02/03 02:54:47;;;;;;;10.07;8.63;;;11.00;99.90;;;;;;4997981;28;20529;-85
2022/02/03 03:33:56;;;;;;;10.63;8.23;;;10.40;99.90;;;;;;4984525;28;20482;-84
2022/02/03 03:36:47;;;;;;;9.00;6.83;;;10.30;99.90;;;;;;4999533;28;20566;-85
2022/02/03 03:39:28;;;;;;;8.90;8.00;;;10.40;99.90;;;;;;4992651;28;20508;-84
2022/02/03 03:42:21;;;;;;;11.67;8.30;;;10.30;99.90;;;;;;4992277;28;20513;-84
2022/02/03 03:45:16;;;;;;;9.40;7.90;;;10.30;99.90;;;;;;4987423;28;20467;-84
2022/02/03 03:48:05;;;;;;;11.17;8.40;;;10.20;99.90;;;;;;4986132;28;20452;-83
2022/02/03 03:51:05;;;;;;;8.00;7.20;;;10.20;99.90;;;;;;5004188;28;20466;-82
2022/02/03 03:54:08;;;;;;;7.77;6.90;;;10.20;99.90;;;;;;4982445;28;20473;-83
2022/02/03 05:07:25;;;;;;;4.93;4.03;;;10.00;99.90;;;;;;4944937;28;20460;-85
2022/02/03 05:14:59;;;;;;;6.50;3.97;;;10.00;99.90;;;;;;4942494;28;20531;-83
2022/02/03 05:25:17;;;;;;;8.90;5.07;;;10.00;99.90;;;;;;4951625;28;20477;-85
2022/02/03 05:46:30;;;;;;;11.40;7.13;;;10.80;99.90;;;;;;4987459;28;20461;-85
2022/02/03 05:53:07;;;;;;;13.80;8.00;;;10.50;99.90;;;;;;4994365;28;20479;-85
2022/02/03 06:14:39;;;;;;;9.13;7.87;;;10.70;99.90;;;;;;4880054;29;20516;-84
2022/02/03 06:21:25;;;;;;;9.37;7.00;;;10.60;99.90;;;;;;4917167;29;20464;-85
2022/02/03 06:24:30;;;;;;;14.50;8.37;;;10.90;99.90;;;;;;4973650;28;20562;-84
2022/02/03 06:34:09;;;;;;;11.40;6.40;;;10.60;99.90;;;;;;4954169;28;20446;-89
2022/02/03 06:36:52;;;;;;;8.57;7.30;;;10.40;99.90;;;;;;4944780;28;20450;-86
2022/02/03 06:39:59;;;;;;;11.20;7.30;;;10.30;99.90;;;;;;4947241;29;20473;-84
2022/02/03 06:43:21;;;;;;;16.73;8.73;;;10.50;99.90;;;;;;4990845;28;20514;-85
2022/02/03 06:52:13;;;;;;;12.87;9.30;;;10.80;99.90;;;;;;5451912;23;20504;-86
2022/02/03 06:55:20;;;;;;;14.43;10.40;;;10.90;99.90;;;;;;4951560;28;20520;-85
2022/02/03 07:04:37;;;;;;;13.43;9.90;;;10.80;99.90;;;;;;4948909;28;20515;-83
2022/02/03 07:07:45;;;;;;;14.90;10.93;;;10.90;99.90;;;;;;4962489;28;20448;-83
2022/02/03 07:14:56;;;;;;;13.90;9.80;;;10.40;99.90;;;;;;4919206;29;20481;-84
2022/02/03 07:17:39;;;;;;;11.33;8.93;;;10.50;99.90;;;;;;4918182;29;20486;-82
2022/02/03 07:20:45;;;;;;;19.47;10.70;;;10.60;99.90;;;;;;4919176;29;20437;-82
2022/02/03 07:23:41;;;;;;;;;;;;;;;;;;;;;
2022/02/03 07:26:28;;;;;;;15.60;10.97;;;10.60;99.90;;;;;;4967049;28;20492;-85
2022/02/03 07:29:25;;;;;;;20.20;11.77;;;10.60;99.90;;;;;;4960838;28;20456;-85
2022/02/03 07:32:28;;;;;;;14.60;8.50;;;10.70;99.90;;;;;;4980729;28;20476;-85
2022/02/03 07:35:45;;;;;;;13.30;9.30;;;10.60;99.90;;;;;;4999507;28;20449;-87
2022/02/03 07:38:39;;;;;;;13.53;11.27;;;10.60;99.90;;;;;;4983614;28;20876;-80
2022/02/03 07:45:57;;;;;;;16.67;11.77;;;10.30;99.90;;;;;;4970190;28;20494;-81
2022/02/03 07:49:08;;;;;;;20.33;12.27;;;10.30;99.90;;;;;;4974331;28;20916;-82
2022/02/03 07:55:48;;;;;;;14.70;10.63;;;10.50;99.90;;;;;;4980410;28;20492;-83
2022/02/03 07:59:13;;;;;;;;;;;;;;;;;;;;;
2022/02/03 08:02:11;;;;;;;18.00;12.43;;;10.50;99.90;;;;;;4980500;28;20478;-88
2022/02/03 08:05:18;;;;;;;15.73;11.60;;;10.20;99.90;;;;;;4985534;28;20488;-85
2022/02/03 08:08:47;;;;;;;16.43;11.47;;;10.40;99.90;;;;;;4993534;28;20441;-89
2022/02/03 08:11:33;;;;;;;16.93;10.70;;;10.50;99.90;;;;;;4987861;28;20487;-84
2022/02/03 08:14:38;;;;;;;14.93;10.87;;;11.00;99.90;;;;;;4979329;28;20452;-83
2022/02/03 08:18:03;;;;;;;14.90;10.77;;;10.20;99.90;;;;;;4993578;28;20490;-84
2022/02/03 08:20:46;;;;;;;23.07;11.20;;;10.50;99.90;;;;;;4978609;28;20483;-85
2022/02/03 08:23:55;;;;;;;15.03;9.77;;;10.70;99.90;;;;;;4922794;29;20444;-85
2022/02/03 08:32:57;;;;;;;13.33;10.33;;;11.50;99.90;;;;;;4973364;28;20509;-86
2022/02/03 08:40:43;;;;;;;13.60;10.00;;;10.90;99.90;;;;;;4974680;28;20478;-83
2022/02/03 08:44:02;;;;;;;12.37;8.93;;;11.10;99.90;;;;;;4935837;28;20466;-86
2022/02/03 08:46:47;;;;;;;7.93;6.90;;;11.00;99.90;;;;;;4950163;28;20485;-81
2022/02/03 08:54:38;;;;;;;9.57;6.60;;;11.00;99.90;;;;;;4956837;28;20787;-83
2022/02/03 10:09:07;;;;;;;6.00;4.30;;;10.70;99.90;;;;;;4981896;28;20478;-83
2022/02/03 10:12:22;;;;;;;3.63;3.33;;;10.40;99.90;;;;;;4986269;28;20503;-84
2022/02/03 10:15:09;;;;;;;4.07;3.67;;;10.40;99.90;;;;;;4984261;28;20444;-82
2022/02/03 10:18:22;;;;;;;;;;;;;;;;;;;;;
2022/02/03 10:27:28;;;;;;;3.47;3.17;;;10.40;99.90;;;;;;4966366;29;20484;-86
2022/02/03 10:30:54;;;;;;;3.53;2.70;;;10.60;99.90;;;;;;4946745;29;20516;-85
2022/02/03 10:34:05;;;;;;;3.23;2.93;;;10.90;99.90;;;;;;4941379;29;20473;-85
2022/02/03 11:05:06;;;;;;;2.93;2.17;;;10.40;99.90;;;;;;4922082;29;20790;-84
2022/02/03 11:08:09;;;;;;;3.60;3.30;;;10.40;99.90;;;;;;4932507;29;20485;-84
2022/02/03 11:11:22;;;;;;;3.13;2.23;;;10.50;99.90;;;;;;4899958;29;20457;-85
2022/02/03 11:14:36;;;;;;;2.30;2.20;;;10.40;99.90;;;;;;4884115;29;21074;-83
2022/02/03 11:38:56;;;;;;;2.07;1.80;;;10.20;99.90;;;;;;5015027;28;20575;-82
2022/02/03 12:02:12;;;;;;;3.17;2.90;;;10.80;99.90;;;;;;4996894;28;20518;-82
2022/02/03 12:05:15;;;;;;;3.47;2.70;;;10.10;99.90;;;;;;4989172;28;20526;-83
2022/02/03 12:10:14;;;;;;;3.53;3.23;;;10.10;99.90;;;;;;4996384;28;20468;-82
2022/02/03 12:21:25;;;;;;;3.63;3.30;;;10.00;99.90;;;;;;5001236;28;20575;-85
2022/02/03 12:31:57;;;;;;;3.50;3.20;;;9.90;99.90;;;;;;4971162;28;20481;-86
2022/02/03 12:42:02;;;;;;;3.87;3.57;;;10.00;99.90;;;;;;4980987;28;21069;-86
2022/02/03 12:44:41;;;;;;;2.90;2.70;;;9.90;99.90;;;;;;4991134;28;20487;-85
2022/02/03 12:47:38;;;;;;;4.00;3.23;;;9.90;99.90;;;;;;4998813;28;20456;-84
2022/02/03 12:50:44;;;;;;;3.47;3.10;;;9.80;99.90;;;;;;4987787;28;20455;-84
2022/02/03 12:53:56;;;;;;;2.43;2.27;;;9.80;99.90;;;;;;5003955;23;20594;-87
2022/02/03 12:56:40;;;;;;;3.43;3.13;;;9.80;99.90;;;;;;4958752;28;20568;-84
2022/02/03 12:59:47;;;;;;;3.90;3.00;;;9.80;99.90;;;;;;4958287;28;20451;-85
2022/02/03 13:02:26;;;;;;;3.00;2.70;;;9.60;99.90;;;;;;4956310;28;20568;-84
2022/02/03 13:05:34;;;;;;;2.73;2.53;;;9.60;99.90;;;;;;4941833;29;20576;-82
2022/02/03 13:09:22;;;;;;;6.03;2.90;;;9.30;99.90;;;;;;4936847;29;20440;-85
2022/02/03 13:12:36;;;;;;;3.57;3.27;;;9.60;99.90;;;;;;4945078;29;20485;-83
2022/02/03 13:16:09;;;;;;;3.00;2.80;;;9.60;99.90;;;;;;4953741;29;20449;-85
2022/02/03 13:19:48;;;;;;;6.43;3.50;;;9.50;99.90;;;;;;4931271;29;20443;-85
2022/02/03 13:22:46;;;;;;;3.53;3.20;;;9.60;99.90;;;;;;4955272;29;20475;-85
2022/02/03 13:29:49;;;;;;;4.13;3.40;;;9.50;99.90;;;;;;4967641;28;20565;-84
2022/02/03 13:33:16;;;;;;;4.37;3.40;;;9.40;99.90;;;;;;5058705;23;20494;-84
2022/02/03 13:36:40;;;;;;;4.40;4.00;;;9.30;99.90;;;;;;4992940;28;20447;-84
2022/02/03 13:42:52;;;;;;;;;;;;;;;;;;;;;
2022/02/03 13:49:47;;;;;;;;;;;;;;;;;;;;;
2022/02/03 14:20:05;;;;;;;6.13;4.83;;;10.00;99.90;;;;;;4956670;28;20500;-84
2022/02/03 14:30:19;;;;;;;4.83;3.93;;;9.90;99.90;;;;;;4898228;29;21064;-85
2022/02/03 14:33:33;;;;;;;4.67;4.00;;;9.50;99.90;;;;;;4863609;29;20537;-84
2022/02/03 14:36:45;;;;;;;5.90;4.70;;;9.40;99.90;;;;;;4865718;29;21044;-82
2022/02/03 14:39:45;;;;;;;4.90;4.40;;;9.40;99.90;;;;;;4863972;29;20539;-83
2022/02/03 14:42:52;;;;;;;5.73;4.73;;;9.90;99.90;;;;;;4870306;29;20508;-83
2022/02/03 14:48:39;;;;;;;5.03;4.53;;;9.40;99.90;;;;;;4885969;28;20467;-83
2022/02/03 14:52:08;;;;;;;7.70;6.00;;;9.30;99.90;;;;;;4979754;28;20489;-83
2022/02/03 14:58:04;;;;;;;3.80;3.50;;;9.80;99.90;;;;;;4983119;28;20471;-82
2022/02/03 15:00:45;;;;;;;3.47;3.13;;;10.00;99.90;;;;;;4983118;28;20488;-82
2022/02/03 15:03:26;;;;;;;3.57;3.27;;;9.20;99.90;;;;;;4985087;28;20463;-83
2022/02/03 15:06:09;;;;;;;5.10;3.40;;;9.40;99.90;;;;;;4984050;28;20541;-83
2022/02/03 15:15:17;;;;;;;4.47;3.90;;;10.40;99.90;;;;;;4987691;28;20463;-84
2022/02/03 15:18:17;;;;;;;5.80;3.73;;;9.50;99.90;;;;;;4985006;28;20523;-82
2022/02/03 15:21:24;;;;;;;4.50;3.70;;;9.80;99.90;;;;;;4983142;28;20497;-84
2022/02/03 15:24:21;;;;;;;4.60;4.20;;;10.10;99.90;;;;;;4965607;28;20524;-83
2022/02/03 15:27:00;;;;;;;4.27;3.93;;;10.10;99.90;;;;;;4984985;28;20574;-84
2022/02/03 15:30:09;;;;;;;;;;;;;;;;;;;;;
2022/02/03 15:32:57;;;;;;;4.60;3.57;;;9.40;99.90;;;;;;4980027;28;20494;-83
2022/02/03 15:35:57;;;;;;;5.90;3.73;;;9.60;99.90;;;;;;4997404;28;20471;-82
2022/02/03 15:38:50;;;;;;;4.97;3.60;;;9.70;99.90;;;;;;4989092;28;20495;-82
2022/02/03 15:41:44;;;;;;;4.77;3.70;;;9.60;99.90;;;;;;4996632;28;20487;-83
2022/02/03 15:44:38;;;;;;;4.80;3.47;;;9.70;99.90;;;;;;4988123;28;20543;-84
2022/02/03 15:48:11;;;;;;;4.27;3.40;;;9.90;99.90;;;;;;4965546;28;20682;-83
2022/02/03 15:58:30;;;;;;;5.37;3.90;;;9.70;99.90;;;;;;4965560;28;20459;-84
2022/02/03 16:13:35;;;;;;;8.50;5.07;;;9.70;99.90;;;;;;4960503;28;20467;-81
2022/02/03 16:19:40;;;;;;;9.07;5.30;;;9.70;99.90;;;;;;4964575;28;21332;-82
2022/02/03 16:52:35;;;;;;;6.40;5.60;;;9.50;99.90;;;;;;4998856;23;20517;-86
2022/02/03 16:55:12;;;;;;;6.23;5.43;;;9.40;99.90;;;;;;4982256;28;20440;-88
2022/02/03 17:01:32;;;;;;;8.17;5.97;;;9.40;99.90;;;;;;4980907;28;20488;-86
2022/02/03 17:04:26;;;;;;;7.20;5.90;;;9.70;99.90;;;;;;4976297;28;21239;-87
2022/02/03 17:10:51;;;;;;;8.77;5.80;;;9.60;99.90;;;;;;4955032;28;20559;-86
2022/02/03 17:17:41;;;;;;;6.70;5.03;;;9.20;99.90;;;;;;4952896;28;20582;-85
2022/02/03 17:20:58;;;;;;;5.53;4.73;;;9.90;99.90;;;;;;4958586;28;20929;-83
2022/02/03 17:24:08;;;;;;;;;;;;;;;;;;;;;
2022/02/03 18:55:34;;;;;;;7.60;6.73;;;9.90;99.90;;;;;;4800974;29;20865;-85
2022/02/03 20:28:12;;;;;;;9.90;8.07;;;9.10;99.90;;;;;;4982624;28;20986;-85
2022/02/03 20:32:09;;;;;;;;;;;;;;;;;;;;;
2022/02/03 20:46:25;;;;;;;9.73;7.50;;;9.40;99.90;;;;;;4943965;29;20477;-85
2022/02/03 20:49:41;;;;;;;9.30;8.20;;;9.40;99.90;;;;;;4942125;29;20450;-86
2022/02/03 20:53:03;;;;;;;;;;;;;;;;;;;;;
2022/02/03 20:56:39;;;;;;;11.90;7.83;;;9.10;99.90;;;;;;4944629;29;20499;-86
2022/02/03 21:00:41;;;;;;;9.70;8.70;;;9.20;99.90;;;;;;4941738;29;20477;-85
2022/02/03 21:10:25;;;;;;;9.80;8.00;;;9.50;99.90;;;;;;4888326;29;20482;-85
2022/02/03 21:13:10;;;;;;;9.97;7.60;;;9.60;99.90;;;;;;4845909;29;21104;-85
2022/02/03 21:16:54;;;;;;;9.13;7.50;;;9.80;99.90;;;;;;4889051;29;20452;-85
2022/02/03 21:20:05;;;;;;;9.00;7.57;;;9.60;99.90;;;;;;4837864;29;20454;-85
2022/02/03 21:23:51;;;;;;;;;;;;;;;;;;;;;
2022/02/03 21:27:22;;;;;;;12.00;8.20;;;9.40;99.90;;;;;;4847890;29;20489;-88
2022/02/03 21:35:22;;;;;;;10.07;7.83;;;9.20;99.90;;;;;;4778775;29;20452;-86
2022/02/03 22:09:16;;;;;;;9.80;8.23;;;9.30;99.90;;;;;;5006796;28;20474;-88
2022/02/03 22:48:54;;;;;;;11.00;8.57;;;9.70;99.90;;;;;;4976246;28;20496;-85
2022/02/03 22:52:46;;;;;;;;;;;;;;;;;;;;;
2022/02/03 22:55:46;;;;;;;8.23;7.40;;;9.60;99.90;;;;;;4960794;29;20456;-85
2022/02/03 22:59:42;;;;;;;10.83;8.00;;;9.50;99.90;;;;;;4957853;28;20865;-84
2022/02/03 23:02:08;;;;;;;12.53;9.30;;;9.60;99.90;;;;;;4944600;29;20492;-85
2022/02/03 23:12:06;;;;;;;12.20;9.43;;;9.10;99.90;;;;;;4927099;29;20490;-83
2022/02/03 23:18:50;;;;;;;10.50;9.37;;;9.50;99.90;;;;;;4925761;29;20473;-83
2022/02/03 23:22:06;;;;;;;11.43;9.33;;;9.40;99.90;;;;;;4915571;29;20454;-83
2022/02/03 23:25:13;;;;;;;11.53;9.07;;;9.40;99.90;;;;;;4920039;29;20466;-84
2022/02/03 23:28:14;;;;;;;12.77;9.07;;;9.50;99.90;;;;;;4884471;29;20997;-83
2022/02/03 23:31:07;;;;;;;12.20;9.00;;;9.30;99.90;;;;;;4874937;29;20543;-84
2022/02/03 23:33:44;;;;;;;9.70;8.10;;;9.50;99.90;;;;;;4876549;29;20468;-82
2022/02/03 23:36:31;;;;;;;11.67;8.10;;;9.30;99.90;;;;;;4861137;29;20476;-83
2022/02/03 23:39:14;;;;;;;10.70;8.00;;;9.80;99.90;;;;;;4862921;29;20461;-84
